Keshan, China
Current Conditions -  °F | °C
As of 3:00 AM on Saturday 22 Nov 2014 (Local Time) from ZYHB Reporting Station
Clear Clear  
Wind Chill:   Ceiling: Unl
Heat Index: 18°   Visibility: 6mi
Dew Point: 10°   Wind: 7mph
Humidity: 73%   Direction: 280°W
Pressure: 30.21"   Gusts: NA
Location:  48.03°N, 125.86°E
Report Text: ZYHB 211900Z 28003MPS CAVOK M08/M12 Q1023 NOSIG
Loading
Personal Weather Stations






























Interactive Weather Map New forecast layout! Learn more

10-Day Weather Forecast

Advertisements
Track Severe Weather on mobile